Time;durP1;ratioP1;P1;durP2;ratioP2;P2;SDS_P1;SDS_P2;PMS_P1;PMS_P2;Temp;Humidity;BMP_temperature;BMP_pressure;BME280_temperature;BME280_humidity;BME280_pressure;Samples;Min_cycle;Max_cycle;Signal;HPM_P1;HPM_P2
2023/01/12 00:01:56;;;;;;;14.10;7.82;;;27.80;92.40;;;;;;5046057;28;20036;-49
2023/01/12 00:04:26;;;;;;;14.27;7.90;;;27.80;92.50;;;;;;5046555;28;20041;-57
2023/01/12 00:07:00;;;;;;;13.98;7.32;;;27.80;92.40;;;;;;5045651;28;20095;-52
2023/01/12 00:09:27;;;;;;;15.20;7.65;;;27.80;92.50;;;;;;5028354;28;20314;-56
2023/01/12 00:11:53;;;;;;;17.77;7.95;;;27.80;92.50;;;;;;5046328;28;20029;-54
2023/01/12 00:14:20;;;;;;;17.13;8.00;;;27.80;92.40;;;;;;5046437;28;20056;-58
2023/01/12 00:16:47;;;;;;;16.55;8.63;;;27.80;92.30;;;;;;5046132;28;20037;-52
2023/01/12 00:19:14;;;;;;;15.13;7.53;;;27.80;92.30;;;;;;5046543;28;20089;-52
2023/01/12 00:24:49;;;;;;;17.33;8.63;;;27.80;92.10;;;;;;4985903;28;20193;-56
2023/01/12 00:27:18;;;;;;;13.23;7.75;;;27.70;92.00;;;;;;5033806;28;20060;-59
2023/01/12 00:29:45;;;;;;;14.40;7.68;;;27.70;92.00;;;;;;5046074;28;20084;-57
2023/01/12 00:32:14;;;;;;;15.80;8.00;;;27.70;91.90;;;;;;5045633;28;20310;-57
2023/01/12 00:34:41;;;;;;;13.30;8.60;;;27.70;91.90;;;;;;5046670;28;20105;-57
2023/01/12 00:37:09;;;;;;;15.57;9.13;;;27.70;91.90;;;;;;5045561;28;20030;-54
2023/01/12 00:39:36;;;;;;;14.50;9.45;;;27.70;91.80;;;;;;5046065;28;20033;-57
2023/01/12 00:47:34;;;;;;;14.02;7.72;;;27.70;91.60;;;;;;5046164;28;20225;-57
2023/01/12 00:50:00;;;;;;;14.27;7.07;;;27.70;91.40;;;;;;5045616;28;20021;-62
2023/01/12 00:52:27;;;;;;;12.88;7.22;;;27.60;91.30;;;;;;5054612;28;20037;-54
2023/01/12 00:54:54;;;;;;;16.52;7.10;;;27.60;91.20;;;;;;5058980;28;20040;-53
2023/01/12 00:57:20;;;;;;;11.23;6.38;;;27.50;90.90;;;;;;5056021;28;20048;-51
2023/01/12 00:59:47;;;;;;;16.15;7.07;;;27.40;90.80;;;;;;5065397;28;20297;-50
2023/01/12 01:02:14;;;;;;;13.10;7.03;;;27.30;91.10;;;;;;5047599;28;20063;-50
2023/01/12 01:04:40;;;;;;;15.48;7.35;;;27.30;91.10;;;;;;5045423;28;20052;-52
2023/01/12 01:07:07;;;;;;;15.68;7.40;;;27.20;91.10;;;;;;5049489;28;20348;-53
2023/01/12 01:09:33;;;;;;;14.82;6.85;;;27.20;91.10;;;;;;5064974;28;20025;-48
2023/01/12 01:12:00;;;;;;;16.73;7.05;;;27.10;90.80;;;;;;5065005;28;20025;-53
2023/01/12 01:14:27;;;;;;;17.63;7.18;;;27.10;90.80;;;;;;5065205;28;20239;-47
2023/01/12 01:16:53;;;;;;;15.98;6.80;;;27.10;90.70;;;;;;5063285;28;20105;-57
2023/01/12 01:19:21;;;;;;;13.70;6.53;;;27.10;90.60;;;;;;5055075;28;20025;-50
2023/01/12 01:21:51;;;;;;;11.43;7.22;;;27.00;90.90;;;;;;5049654;28;20037;-50
2023/01/12 01:24:20;;;;;;;11.77;6.70;;;26.90;90.90;;;;;;5045660;28;20036;-50
2023/01/12 01:26:50;;;;;;;12.38;6.65;;;26.90;90.90;;;;;;5054319;28;20017;-52
2023/01/12 01:29:17;;;;;;;13.00;6.30;;;26.80;90.80;;;;;;5056631;28;20416;-52
2023/01/12 01:31:46;;;;;;;10.85;6.32;;;26.80;91.00;;;;;;5055835;28;20093;-51
2023/01/12 01:34:16;;;;;;;12.20;6.50;;;26.70;90.90;;;;;;5044972;28;20148;-50
2023/01/12 01:36:43;;;;;;;10.90;6.75;;;26.70;90.80;;;;;;5044857;28;20025;-49
2023/01/12 01:39:09;;;;;;;14.75;6.45;;;26.70;91.00;;;;;;5046175;28;20076;-54
2023/01/12 01:41:36;;;;;;;13.88;6.70;;;26.70;90.90;;;;;;5054198;28;20024;-51
2023/01/12 01:44:06;;;;;;;14.20;6.78;;;26.70;90.90;;;;;;5064620;28;20025;-50
2023/01/12 01:46:53;;;;;;;14.68;6.53;;;26.70;90.80;;;;;;5060834;28;20021;-54
2023/01/12 01:49:26;;;;;;;12.07;6.78;;;26.60;90.70;;;;;;5044420;28;20021;-49
2023/01/12 01:52:06;;;;;;;18.83;7.22;;;26.60;90.70;;;;;;5044918;28;20048;-51
2023/01/12 01:54:40;;;;;;;12.50;6.50;;;26.60;90.90;;;;;;5044206;28;20093;-50
2023/01/12 01:57:14;;;;;;;13.40;7.18;;;26.60;90.80;;;;;;5044284;28;20040;-52
2023/01/12 01:59:49;;;;;;;14.07;6.68;;;26.60;90.60;;;;;;5044637;28;20029;-54
2023/01/12 02:02:16;;;;;;;15.80;6.65;;;26.60;90.80;;;;;;5048898;28;20049;-53
2023/01/12 02:04:43;;;;;;;12.90;6.90;;;26.60;90.70;;;;;;5054030;28;20026;-49
2023/01/12 02:07:10;;;;;;;11.43;7.28;;;26.60;90.70;;;;;;5057485;28;20033;-53
2023/01/12 02:09:37;;;;;;;12.82;7.07;;;26.70;90.80;;;;;;5063884;28;20178;-51
2023/01/12 02:17:42;;;;;;;13.18;6.88;;;26.90;90.50;;;;;;5082143;28;20278;-53
2023/01/12 02:20:30;;;;;;;15.90;7.80;;;27.00;90.40;;;;;;5075976;28;20040;-56
2023/01/12 02:23:21;;;;;;;12.93;6.88;;;27.00;90.40;;;;;;5077373;28;20029;-53
2023/01/12 02:26:21;;;;;;;13.27;6.97;;;27.10;90.40;;;;;;5077573;28;20032;-52
2023/01/12 02:29:00;;;;;;;14.10;7.05;;;27.10;90.20;;;;;;5081640;28;20075;-52
2023/01/12 02:31:51;;;;;;;11.20;7.22;;;27.20;90.10;;;;;;5049154;28;20091;-52
2023/01/12 02:34:44;;;;;;;12.32;7.10;;;27.20;90.10;;;;;;5073084;28;20079;-51
2023/01/12 02:37:35;;;;;;;11.93;6.47;;;27.20;90.30;;;;;;5058524;28;20071;-55
2023/01/12 02:40:12;;;;;;;13.38;6.72;;;27.30;90.20;;;;;;5063824;28;20021;-54
2023/01/12 02:42:49;;;;;;;15.60;7.72;;;27.20;90.20;;;;;;5070559;28;20029;-52
2023/01/12 02:45:37;;;;;;;14.20;7.50;;;27.30;90.30;;;;;;5074854;28;20067;-51
2023/01/12 02:48:39;;;;;;;14.07;6.72;;;27.30;90.30;;;;;;5063884;28;20197;-52
2023/01/12 02:51:28;;;;;;;13.98;7.00;;;27.30;90.30;;;;;;5056833;28;20040;-52
2023/01/12 02:54:17;;;;;;;10.95;6.72;;;27.30;90.30;;;;;;5075341;28;20043;-56
2023/01/12 02:56:59;;;;;;;12.70;6.78;;;27.30;90.50;;;;;;5067742;28;20097;-51
2023/01/12 02:59:41;;;;;;;15.07;6.68;;;27.30;90.20;;;;;;5075558;28;20100;-54
2023/01/12 03:02:20;;;;;;;14.48;6.80;;;27.30;90.20;;;;;;5084084;28;20036;-51
2023/01/12 03:04:49;;;;;;;13.25;6.50;;;27.30;90.30;;;;;;5084064;28;20024;-51
2023/01/12 03:07:45;;;;;;;12.02;7.20;;;27.30;90.30;;;;;;5073760;28;20096;-52
2023/01/12 03:10:19;;;;;;;13.38;6.80;;;27.30;90.30;;;;;;5075263;28;20035;-56
2023/01/12 03:12:50;;;;;;;14.27;7.07;;;27.30;90.30;;;;;;5067832;28;20309;-56
2023/01/12 03:15:18;;;;;;;17.02;6.90;;;27.30;90.30;;;;;;5074250;28;20091;-52
2023/01/12 03:18:01;;;;;;;12.55;7.03;;;27.30;90.30;;;;;;5082633;28;20219;-53
2023/01/12 03:20:33;;;;;;;13.82;6.63;;;27.30;90.30;;;;;;5087297;28;20087;-52
2023/01/12 03:23:11;;;;;;;12.20;6.50;;;27.30;90.30;;;;;;5086985;28;20027;-52
2023/01/12 03:25:42;;;;;;;11.88;6.38;;;27.30;90.30;;;;;;5083920;28;20100;-54
2023/01/12 03:28:12;;;;;;;13.65;6.90;;;27.30;90.30;;;;;;5084140;28;20009;-56
2023/01/12 03:30:43;;;;;;;12.77;6.70;;;27.40;90.20;;;;;;5086922;28;20025;-52
2023/01/12 03:33:11;;;;;;;15.65;6.97;;;27.30;90.30;;;;;;5077583;28;20035;-52
2023/01/12 03:35:46;;;;;;;13.40;6.40;;;27.40;90.20;;;;;;5080442;28;20100;-51
2023/01/12 03:38:54;;;;;;;11.73;6.68;;;27.40;90.40;;;;;;5074934;28;20013;-51
2023/01/12 03:41:40;;;;;;;13.25;6.70;;;27.40;90.20;;;;;;5043164;28;20052;-49
2023/01/12 03:44:14;;;;;;;12.10;6.10;;;27.40;90.00;;;;;;5066043;28;20399;-55
2023/01/12 03:46:50;;;;;;;12.32;6.38;;;27.40;90.00;;;;;;5065178;28;20062;-49
2023/01/12 03:49:24;;;;;;;15.43;7.55;;;27.40;90.10;;;;;;5048134;28;20033;-50
2023/01/12 03:51:54;;;;;;;10.82;6.63;;;27.40;90.10;;;;;;5069837;28;20051;-52
2023/01/12 03:54:22;;;;;;;14.90;6.45;;;27.40;89.50;;;;;;5076850;28;20040;-53
2023/01/12 03:56:59;;;;;;;13.23;6.32;;;27.40;89.60;;;;;;5084985;28;20025;-56
2023/01/12 03:59:27;;;;;;;11.13;6.88;;;27.40;89.60;;;;;;5085454;28;20174;-57
2023/01/12 04:02:06;;;;;;;10.55;6.53;;;27.40;89.70;;;;;;5077919;28;20074;-46
2023/01/12 04:04:36;;;;;;;15.40;7.15;;;27.40;89.40;;;;;;5065327;28;20017;-52
2023/01/12 04:07:02;;;;;;;9.52;5.95;;;27.40;89.50;;;;;;5047638;28;20067;-52
2023/01/12 04:09:32;;;;;;;10.82;6.57;;;27.40;89.30;;;;;;5065157;28;20039;-53
2023/01/12 04:12:10;;;;;;;10.98;5.80;;;27.30;89.50;;;;;;5065109;28;20040;-51
2023/01/12 04:14:39;;;;;;;14.32;6.20;;;27.30;90.00;;;;;;5064544;28;20024;-50
2023/01/12 04:17:13;;;;;;;15.18;6.65;;;27.30;89.60;;;;;;5066075;28;20025;-52
2023/01/12 04:19:40;;;;;;;12.80;6.72;;;27.30;89.60;;;;;;5048703;28;20033;-52
2023/01/12 04:25:04;;;;;;;10.32;6.10;;;27.30;89.50;;;;;;5067735;28;20032;-50
2023/01/12 04:30:29;;;;;;;10.02;6.38;;;27.30;89.60;;;;;;5070032;28;20036;-52
2023/01/12 04:33:10;;;;;;;;;;;;;;;;;;;;;
2023/01/12 04:35:37;;;;;;;11.30;6.50;;;27.30;89.60;;;;;;5086339;28;20036;-51
2023/01/12 04:38:07;;;;;;;9.48;6.10;;;27.30;89.70;;;;;;5085944;28;20016;-51
2023/01/12 04:40:46;;;;;;;10.98;6.50;;;27.30;89.70;;;;;;5085692;28;20029;-51
2023/01/12 04:43:12;;;;;;;14.18;6.03;;;27.30;89.80;;;;;;5085750;28;20017;-51
2023/01/12 04:45:42;;;;;;;9.93;6.20;;;27.30;89.80;;;;;;5085632;28;20036;-52
2023/01/12 04:48:12;;;;;;;9.15;5.95;;;27.30;89.60;;;;;;5085779;28;20292;-50
2023/01/12 04:50:39;;;;;;;12.65;6.38;;;27.30;89.50;;;;;;5085347;28;20303;-51
2023/01/12 04:53:08;;;;;;;11.50;6.60;;;27.30;89.80;;;;;;5085702;28;20078;-53
2023/01/12 04:55:39;;;;;;;8.95;6.00;;;27.30;89.60;;;;;;5080758;28;20013;-56
2023/01/12 04:58:06;;;;;;;15.83;6.43;;;27.30;89.70;;;;;;5077616;28;20324;-54
2023/01/12 05:00:33;;;;;;;11.00;5.70;;;27.30;89.80;;;;;;5084955;28;20295;-51
2023/01/12 05:03:01;;;;;;;12.30;6.75;;;27.30;89.70;;;;;;5085447;28;20027;-52
2023/01/12 05:05:31;;;;;;;10.55;6.13;;;27.30;89.60;;;;;;5084980;28;20032;-51
2023/01/12 05:10:56;;;;;;;13.15;6.60;;;27.30;89.90;;;;;;5085001;28;20172;-55
2023/01/12 05:13:27;;;;;;;11.05;6.15;;;27.30;89.70;;;;;;5085358;28;20031;-52
2023/01/12 05:15:54;;;;;;;9.13;6.13;;;27.20;89.60;;;;;;5073931;28;20051;-50
2023/01/12 05:18:20;;;;;;;10.45;6.55;;;27.30;89.60;;;;;;5075978;28;20335;-53
2023/01/12 05:20:47;;;;;;;9.15;6.07;;;27.20;89.60;;;;;;5073293;28;20080;-52
2023/01/12 05:23:14;;;;;;;9.55;6.20;;;27.20;89.40;;;;;;5072970;28;20055;-55
2023/01/12 05:25:40;;;;;;;9.75;5.93;;;27.20;89.70;;;;;;5081822;28;20058;-52
2023/01/12 05:28:07;;;;;;;8.38;6.03;;;27.20;89.30;;;;;;5084983;28;20028;-54
2023/01/12 05:30:33;;;;;;;9.75;5.95;;;27.30;89.20;;;;;;5077660;28;20024;-52
2023/01/12 05:33:00;;;;;;;10.02;5.57;;;27.30;89.50;;;;;;5071789;28;20021;-51
2023/01/12 05:35:26;;;;;;;10.35;6.00;;;27.30;89.40;;;;;;5064413;28;20037;-51
2023/01/12 05:37:56;;;;;;;11.52;6.57;;;27.30;89.50;;;;;;5064627;28;20028;-52
2023/01/12 05:40:23;;;;;;;15.50;6.10;;;27.30;89.60;;;;;;5063680;28;20056;-52
2023/01/12 05:45:36;;;;;;;7.50;5.68;;;27.20;89.60;;;;;;5064386;28;20036;-54
2023/01/12 05:48:03;;;;;;;11.57;6.10;;;27.20;90.10;;;;;;5064601;28;20040;-51
2023/01/12 05:50:29;;;;;;;9.43;5.93;;;27.20;89.40;;;;;;5064319;28;20102;-58
2023/01/12 05:52:56;;;;;;;11.93;6.13;;;27.20;89.60;;;;;;5083467;28;20043;-53
2023/01/12 05:55:22;;;;;;;9.45;6.00;;;27.20;89.60;;;;;;5084114;28;20028;-52
2023/01/12 05:57:49;;;;;;;8.80;5.97;;;27.20;89.70;;;;;;5084317;28;20040;-52
2023/01/12 06:00:16;;;;;;;12.77;6.63;;;27.20;89.50;;;;;;5084072;28;20054;-54
2023/01/12 06:02:43;;;;;;;10.60;6.05;;;27.20;89.60;;;;;;5084395;28;20040;-53
2023/01/12 06:05:09;;;;;;;8.57;5.50;;;27.20;89.40;;;;;;5083975;28;20024;-52
2023/01/12 06:07:36;;;;;;;9.50;6.38;;;27.20;89.60;;;;;;5083674;28;20040;-53
2023/01/12 06:10:04;;;;;;;10.10;5.88;;;27.20;89.50;;;;;;5077150;28;20043;-54
2023/01/12 06:15:16;;;;;;;11.00;6.28;;;27.10;89.30;;;;;;5063878;28;20282;-53
2023/01/12 06:17:42;;;;;;;13.20;5.85;;;27.10;89.30;;;;;;5064063;28;20087;-53
2023/01/12 06:20:13;;;;;;;10.02;6.10;;;27.10;89.30;;;;;;5063873;28;20033;-53
2023/01/12 06:22:40;;;;;;;8.07;5.43;;;27.10;89.50;;;;;;5063941;28;20036;-52
2023/01/12 06:25:07;;;;;;;9.85;5.93;;;27.10;89.60;;;;;;5063701;28;20025;-53
2023/01/12 06:27:34;;;;;;;8.43;5.68;;;27.10;90.00;;;;;;5063977;28;20035;-52
2023/01/12 06:30:01;;;;;;;11.40;6.20;;;27.10;90.00;;;;;;5063776;28;20020;-56
2023/01/12 06:32:28;;;;;;;7.70;5.88;;;27.10;90.00;;;;;;5063875;28;20029;-53
2023/01/12 06:34:57;;;;;;;10.45;6.65;;;27.10;90.10;;;;;;5063730;28;20194;-53
2023/01/12 06:37:24;;;;;;;10.55;6.20;;;27.10;90.00;;;;;;5063966;28;20017;-52
2023/01/12 06:39:51;;;;;;;11.45;5.55;;;27.10;90.00;;;;;;5063461;28;20029;-53
2023/01/12 06:42:30;;;;;;;9.75;5.85;;;27.10;90.00;;;;;;5063861;28;20025;-52
2023/01/12 06:45:04;;;;;;;10.88;6.20;;;27.00;89.80;;;;;;5063542;28;20048;-53
2023/01/12 06:47:30;;;;;;;9.25;5.72;;;27.00;89.80;;;;;;5063902;28;20020;-59
2023/01/12 06:49:57;;;;;;;9.57;5.80;;;27.00;89.80;;;;;;5063451;28;20252;-52
2023/01/12 06:52:25;;;;;;;7.63;5.57;;;27.00;90.00;;;;;;5065745;28;20024;-54
2023/01/12 06:54:53;;;;;;;10.20;6.18;;;27.00;90.00;;;;;;5067336;28;20037;-52
2023/01/12 06:57:19;;;;;;;10.23;5.72;;;27.00;90.00;;;;;;5067586;28;20033;-52
2023/01/12 06:59:46;;;;;;;10.05;6.18;;;27.00;90.00;;;;;;5067280;28;20021;-53
2023/01/12 07:02:14;;;;;;;10.07;5.95;;;27.00;89.70;;;;;;5067483;28;20028;-51
2023/01/12 07:04:42;;;;;;;11.48;6.18;;;27.00;89.60;;;;;;5067301;28;20041;-50
2023/01/12 07:07:09;;;;;;;11.80;5.85;;;27.00;89.80;;;;;;5066904;28;20029;-49
2023/01/12 07:09:36;;;;;;;9.65;6.50;;;27.00;89.80;;;;;;5067189;28;20037;-58
2023/01/12 07:12:03;;;;;;;10.02;6.50;;;27.00;89.70;;;;;;5067288;28;20105;-52
2023/01/12 07:14:30;;;;;;;10.27;5.68;;;27.00;89.80;;;;;;5066984;28;20033;-56
2023/01/12 07:16:56;;;;;;;12.10;6.38;;;27.00;89.70;;;;;;5067212;28;20081;-52
2023/01/12 07:19:23;;;;;;;9.05;5.60;;;26.90;89.80;;;;;;5066922;28;20041;-55
2023/01/12 07:21:50;;;;;;;9.15;5.70;;;26.90;90.00;;;;;;5066950;28;20020;-52
2023/01/12 07:24:16;;;;;;;11.88;6.07;;;26.90;90.00;;;;;;5067168;28;20205;-51
2023/01/12 07:26:43;;;;;;;11.43;5.57;;;26.90;90.00;;;;;;5067102;28;20126;-51
2023/01/12 07:29:10;;;;;;;10.55;6.05;;;27.00;90.10;;;;;;5066884;28;20021;-55
2023/01/12 07:31:37;;;;;;;10.25;6.47;;;27.00;90.00;;;;;;5066703;28;20021;-51
2023/01/12 07:34:03;;;;;;;10.38;5.85;;;26.90;90.00;;;;;;5066700;28;20071;-54
2023/01/12 07:36:31;;;;;;;11.50;6.50;;;27.00;90.10;;;;;;5066888;28;20313;-52
2023/01/12 07:38:58;;;;;;;11.90;5.97;;;26.90;89.90;;;;;;5066462;28;20033;-53
2023/01/12 07:44:11;;;;;;;10.27;6.03;;;26.90;90.20;;;;;;5065691;28;20043;-53
2023/01/12 07:46:37;;;;;;;11.18;5.88;;;26.90;90.10;;;;;;5086532;28;20186;-52
2023/01/12 07:49:04;;;;;;;11.80;5.95;;;26.90;90.00;;;;;;5086718;28;20213;-53
2023/01/12 07:51:31;;;;;;;9.73;6.10;;;26.90;89.90;;;;;;5086193;28;20028;-59
2023/01/12 07:53:57;;;;;;;8.35;6.03;;;27.00;89.90;;;;;;5086422;28;20087;-52
2023/01/12 07:56:24;;;;;;;12.23;6.03;;;26.90;89.90;;;;;;5086324;28;20020;-55
2023/01/12 07:58:50;;;;;;;10.93;6.25;;;27.00;90.00;;;;;;5086103;28;20115;-51
2023/01/12 08:01:17;;;;;;;12.35;6.20;;;26.90;90.00;;;;;;5086257;28;20043;-52
2023/01/12 08:03:43;;;;;;;12.05;5.95;;;27.00;90.00;;;;;;5085561;28;20036;-53
2023/01/12 08:06:10;;;;;;;9.75;5.68;;;26.90;90.00;;;;;;5085922;28;20016;-52
2023/01/12 08:08:37;;;;;;;10.27;6.13;;;26.90;90.10;;;;;;5086169;28;20232;-51
2023/01/12 08:11:05;;;;;;;8.90;5.90;;;26.90;90.00;;;;;;5085925;28;20037;-56
2023/01/12 08:13:33;;;;;;;12.00;6.15;;;26.90;90.10;;;;;;5085881;28;20092;-51
2023/01/12 08:16:15;;;;;;;9.45;5.50;;;26.90;90.20;;;;;;5086038;28;20033;-52
2023/01/12 08:18:52;;;;;;;11.82;6.07;;;26.90;90.20;;;;;;5085819;28;20028;-49
2023/01/12 08:21:22;;;;;;;12.20;5.88;;;26.90;90.20;;;;;;5085782;28;20123;-51
2023/01/12 08:23:55;;;;;;;9.90;5.70;;;26.90;90.20;;;;;;5085884;28;20025;-50
2023/01/12 08:26:27;;;;;;;9.52;5.72;;;26.90;90.30;;;;;;5085752;28;20040;-50
2023/01/12 08:29:02;;;;;;;9.80;5.75;;;26.90;90.30;;;;;;5086050;28;20150;-51
2023/01/12 08:31:31;;;;;;;11.25;6.00;;;26.90;90.30;;;;;;5085855;28;20034;-51
2023/01/12 08:33:57;;;;;;;9.13;5.90;;;26.90;90.20;;;;;;5085675;28;20048;-51
2023/01/12 08:36:27;;;;;;;13.90;5.88;;;26.90;90.30;;;;;;5085640;28;20029;-51
2023/01/12 08:38:55;;;;;;;10.80;5.90;;;26.90;90.50;;;;;;5085336;28;20029;-54
2023/01/12 08:41:32;;;;;;;12.75;5.95;;;26.90;90.40;;;;;;5085307;28;20028;-50
2023/01/12 08:44:15;;;;;;;10.02;5.68;;;26.90;90.50;;;;;;5085326;28;20039;-48
2023/01/12 08:46:51;;;;;;;12.70;6.38;;;26.90;90.50;;;;;;5085745;28;20017;-51
2023/01/12 08:49:20;;;;;;;14.55;6.43;;;26.90;90.40;;;;;;5085121;28;20031;-51
2023/01/12 08:51:47;;;;;;;12.25;6.45;;;26.90;90.60;;;;;;5085532;28;20031;-51
2023/01/12 08:54:16;;;;;;;10.43;6.10;;;26.90;90.50;;;;;;5085165;28;20032;-52
2023/01/12 08:56:43;;;;;;;11.05;5.97;;;26.90;90.60;;;;;;5085203;28;20069;-52
2023/01/12 08:59:10;;;;;;;9.68;5.85;;;26.90;90.70;;;;;;5085198;28;20321;-54
2023/01/12 09:01:37;;;;;;;9.52;6.22;;;26.90;90.70;;;;;;5085164;28;20059;-52
2023/01/12 09:04:04;;;;;;;11.38;6.07;;;26.80;90.70;;;;;;5085007;28;20225;-52
2023/01/12 09:06:36;;;;;;;9.75;5.43;;;26.80;90.70;;;;;;5085259;28;20066;-52
2023/01/12 09:09:07;;;;;;;12.75;5.72;;;26.80;90.70;;;;;;5085156;28;20229;-52
2023/01/12 09:11:34;;;;;;;9.38;5.65;;;26.80;90.70;;;;;;5085002;28;20058;-53
2023/01/12 09:14:01;;;;;;;10.75;5.88;;;26.80;90.80;;;;;;5085074;28;20025;-51
2023/01/12 09:16:29;;;;;;;10.73;5.93;;;26.80;90.90;;;;;;5084844;28;20095;-53
2023/01/12 09:18:56;;;;;;;12.88;6.13;;;26.80;90.90;;;;;;5084649;28;20037;-53
2023/01/12 09:21:25;;;;;;;10.75;6.47;;;26.80;91.00;;;;;;5084694;28;20320;-51
2023/01/12 09:23:53;;;;;;;9.43;5.55;;;26.80;91.00;;;;;;5084627;28;20142;-51
2023/01/12 09:26:30;;;;;;;8.93;5.70;;;26.80;91.00;;;;;;5084574;28;20062;-50
2023/01/12 09:29:01;;;;;;;9.80;5.93;;;26.80;91.00;;;;;;5084765;28;20032;-52
2023/01/12 09:31:29;;;;;;;9.60;5.90;;;26.80;91.00;;;;;;5084454;28;20048;-51
2023/01/12 09:33:57;;;;;;;9.40;5.78;;;26.80;91.00;;;;;;5084485;28;20040;-51
2023/01/12 09:36:26;;;;;;;11.02;6.20;;;26.80;90.90;;;;;;5084477;28;20023;-51
2023/01/12 09:38:53;;;;;;;16.23;6.30;;;26.70;90.80;;;;;;5084267;28;20024;-50
2023/01/12 09:47:38;;;;;;;11.75;5.97;;;26.80;90.80;;;;;;5078997;28;20161;-53
2023/01/12 09:50:09;;;;;;;12.82;6.30;;;26.80;90.80;;;;;;5080271;28;20031;-51
2023/01/12 09:52:39;;;;;;;12.65;5.88;;;26.70;90.80;;;;;;5066798;28;20029;-50
2023/01/12 09:55:11;;;;;;;11.27;5.85;;;26.80;90.80;;;;;;5064100;28;20199;-53
2023/01/12 09:57:59;;;;;;;8.82;5.55;;;26.70;90.80;;;;;;5065145;28;20032;-51
2023/01/12 10:00:27;;;;;;;11.98;6.38;;;26.70;90.80;;;;;;5077231;28;20028;-50
2023/01/12 10:03:25;;;;;;;12.65;6.18;;;26.70;90.80;;;;;;5080049;28;20362;-52
2023/01/12 10:05:56;;;;;;;11.32;5.55;;;26.70;90.80;;;;;;5043684;28;20029;-52
2023/01/12 10:08:37;;;;;;;13.35;6.88;;;26.70;90.90;;;;;;5063577;28;20048;-50
2023/01/12 10:11:25;;;;;;;12.65;6.22;;;26.70;90.80;;;;;;5074971;28;20119;-53
2023/01/12 10:14:13;;;;;;;10.18;5.80;;;26.70;90.80;;;;;;5064412;28;20087;-55
2023/01/12 10:17:14;;;;;;;10.27;5.80;;;26.70;90.90;;;;;;5066720;28;20027;-51
2023/01/12 10:20:08;;;;;;;12.82;6.13;;;26.70;90.90;;;;;;5069867;28;20041;-52
2023/01/12 10:22:48;;;;;;;9.50;5.72;;;26.70;90.90;;;;;;5072948;28;20024;-51
2023/01/12 10:25:33;;;;;;;7.47;5.38;;;26.70;90.90;;;;;;5070460;28;20037;-51
2023/01/12 10:28:24;;;;;;;8.70;5.88;;;26.70;91.10;;;;;;5074582;28;20080;-52
2023/01/12 10:30:52;;;;;;;13.20;6.15;;;26.70;90.90;;;;;;5069707;28;20033;-55
2023/01/12 10:33:29;;;;;;;11.40;5.97;;;26.70;90.80;;;;;;5074368;28;20237;-50
2023/01/12 10:36:07;;;;;;;12.98;5.88;;;26.70;90.80;;;;;;5071587;28;20082;-48
2023/01/12 10:38:34;;;;;;;11.55;5.40;;;26.70;90.80;;;;;;5075448;28;20029;-54
2023/01/12 10:41:10;;;;;;;13.43;6.38;;;26.70;90.70;;;;;;5070534;28;20105;-54
2023/01/12 10:43:39;;;;;;;9.88;5.85;;;26.70;90.70;;;;;;5074466;28;20028;-52
2023/01/12 10:46:14;;;;;;;11.20;6.13;;;26.80;90.80;;;;;;5071550;28;20016;-55
2023/01/12 10:48:46;;;;;;;11.20;6.18;;;26.80;90.70;;;;;;5069179;28;20089;-55
2023/01/12 10:51:32;;;;;;;11.02;5.85;;;26.70;90.60;;;;;;5071944;28;20024;-56
2023/01/12 10:54:03;;;;;;;13.80;6.50;;;26.70;90.50;;;;;;5070581;28;20225;-55
2023/01/12 10:56:39;;;;;;;11.55;6.50;;;26.70;90.60;;;;;;5077920;28;20301;-52
2023/01/12 10:59:12;;;;;;;14.40;6.05;;;26.70;90.70;;;;;;5063446;28;20135;-50
2023/01/12 11:02:07;;;;;;;12.30;6.03;;;26.70;90.70;;;;;;5064171;28;20048;-52
2023/01/12 11:04:37;;;;;;;10.60;6.03;;;26.70;90.70;;;;;;5058213;28;20264;-51
2023/01/12 11:07:27;;;;;;;11.98;6.38;;;26.70;90.60;;;;;;5063155;28;20075;-51
2023/01/12 11:10:15;;;;;;;11.40;5.38;;;26.70;90.60;;;;;;5063510;28;20087;-54
2023/01/12 11:12:41;;;;;;;10.73;6.10;;;26.80;90.80;;;;;;5052614;28;20044;-53
2023/01/12 11:15:11;;;;;;;10.45;5.93;;;26.70;90.70;;;;;;5063443;28;20047;-51
2023/01/12 11:17:56;;;;;;;12.32;6.43;;;26.70;90.80;;;;;;5063563;28;20041;-51
2023/01/12 11:20:36;;;;;;;12.43;6.72;;;26.70;90.60;;;;;;5063227;28;20040;-51
2023/01/12 11:23:10;;;;;;;18.35;7.10;;;26.70;90.60;;;;;;5081243;28;20108;-55
2023/01/12 11:25:44;;;;;;;16.13;6.60;;;26.70;90.60;;;;;;5083360;28;20032;-50
2023/01/12 11:28:17;;;;;;;16.50;7.28;;;26.70;90.70;;;;;;5082469;28;20400;-52
2023/01/12 11:30:57;;;;;;;15.90;6.80;;;26.70;90.60;;;;;;5081355;28;20024;-50
2023/01/12 11:33:32;;;;;;;21.27;6.97;;;26.70;90.70;;;;;;5080000;28;20046;-53
2023/01/12 11:36:07;;;;;;;13.45;6.47;;;26.70;90.70;;;;;;5083313;28;20020;-51
2023/01/12 11:38:39;;;;;;;11.93;6.50;;;26.70;90.80;;;;;;5082643;28;20037;-52
2023/01/12 11:41:42;;;;;;;12.73;6.80;;;26.70;90.80;;;;;;5084567;28;20033;-57
2023/01/12 11:44:22;;;;;;;11.95;6.60;;;26.70;90.80;;;;;;5084957;28;20044;-58
2023/01/12 11:46:56;;;;;;;13.57;7.13;;;26.70;90.90;;;;;;5077847;28;20052;-50
2023/01/12 11:49:29;;;;;;;13.70;6.75;;;26.70;90.90;;;;;;5086520;28;20024;-55
2023/01/12 11:51:58;;;;;;;12.52;6.97;;;26.60;90.90;;;;;;5068596;28;20024;-51
2023/01/12 11:54:27;;;;;;;16.92;7.18;;;26.70;91.20;;;;;;5084767;28;20036;-51
2023/01/12 11:57:31;;;;;;;10.75;6.95;;;26.70;90.90;;;;;;5084934;28;20323;-52
2023/01/12 12:00:19;;;;;;;13.30;7.32;;;26.70;90.90;;;;;;5081990;28;20063;-56
2023/01/12 12:02:52;;;;;;;11.75;7.40;;;26.70;90.90;;;;;;5075505;28;20081;-55
2023/01/12 12:05:52;;;;;;;14.85;8.45;;;26.60;90.90;;;;;;5084532;28;20043;-54
2023/01/12 12:08:28;;;;;;;12.40;8.15;;;26.70;90.90;;;;;;5053163;28;20264;-53
2023/01/12 12:11:28;;;;;;;15.18;7.97;;;26.70;91.00;;;;;;5081216;28;20099;-57
2023/01/12 12:14:12;;;;;;;13.25;7.90;;;26.60;90.90;;;;;;5026965;28;20032;-60
2023/01/12 12:16:57;;;;;;;12.48;8.13;;;26.70;91.00;;;;;;5068691;28;20032;-53
2023/01/12 12:19:47;;;;;;;15.38;7.75;;;26.70;91.00;;;;;;5083302;28;20074;-52
2023/01/12 12:22:25;;;;;;;13.35;7.90;;;26.70;91.00;;;;;;5085810;28;20307;-49
2023/01/12 12:25:13;;;;;;;12.13;8.07;;;26.70;91.10;;;;;;5085956;28;20331;-48
2023/01/12 12:27:58;;;;;;;13.88;8.32;;;26.70;91.20;;;;;;5086095;28;20035;-48
2023/01/12 12:30:46;;;;;;;14.93;9.30;;;26.70;91.30;;;;;;5084928;28;20012;-52
2023/01/12 12:33:25;;;;;;;16.52;9.57;;;26.70;91.30;;;;;;5085266;28;20032;-52
2023/01/12 12:36:05;;;;;;;11.88;8.10;;;26.70;91.30;;;;;;5082897;28;20325;-53
2023/01/12 12:39:09;;;;;;;17.98;9.07;;;26.70;91.40;;;;;;5079878;28;20040;-51
2023/01/12 12:45:18;;;;;;;10.77;7.60;;;26.80;91.40;;;;;;5085521;28;20040;-50
2023/01/12 12:48:06;;;;;;;14.80;8.25;;;26.80;91.50;;;;;;5080832;28;20107;-49
2023/01/12 12:50:57;;;;;;;14.73;8.07;;;26.80;91.50;;;;;;5084964;28;20317;-52
2023/01/12 12:53:37;;;;;;;13.93;7.88;;;26.80;91.60;;;;;;5085185;28;20021;-53
2023/01/12 12:56:13;;;;;;;13.82;7.13;;;26.90;91.70;;;;;;5084529;28;20032;-52
2023/01/12 12:58:47;;;;;;;12.63;7.32;;;26.80;91.70;;;;;;5085183;28;20274;-48
2023/01/12 13:01:21;;;;;;;14.25;6.93;;;26.90;91.70;;;;;;5085019;28;20040;-54
2023/01/12 13:03:55;;;;;;;9.93;6.72;;;26.90;91.70;;;;;;5085416;28;20336;-53
2023/01/12 13:06:27;;;;;;;12.40;7.10;;;26.90;91.80;;;;;;5085007;28;20028;-53
2023/01/12 13:09:23;;;;;;;11.48;7.30;;;26.90;91.80;;;;;;5085113;28;20055;-52
2023/01/12 13:12:08;;;;;;;11.88;7.20;;;26.90;91.80;;;;;;5072508;28;20037;-52
2023/01/12 13:14:43;;;;;;;11.77;7.00;;;26.90;91.80;;;;;;5085468;28;20028;-51
2023/01/12 13:17:27;;;;;;;12.32;7.13;;;26.90;91.80;;;;;;5085627;28;20084;-53
2023/01/12 13:20:01;;;;;;;11.43;6.93;;;26.90;91.90;;;;;;5084742;28;20039;-55
2023/01/12 13:22:45;;;;;;;12.15;6.80;;;26.90;91.90;;;;;;5082685;28;20082;-48
2023/01/12 13:25:23;;;;;;;11.23;6.88;;;27.00;91.90;;;;;;5066290;28;20099;-52
2023/01/12 13:28:17;;;;;;;11.15;6.60;;;27.00;91.90;;;;;;5085021;28;20016;-52
2023/01/12 13:30:52;;;;;;;12.02;7.07;;;27.00;91.90;;;;;;5082936;28;20021;-51
2023/01/12 13:33:29;;;;;;;13.02;7.00;;;27.00;91.90;;;;;;5084954;28;20088;-52
2023/01/12 13:36:05;;;;;;;12.15;6.50;;;27.00;91.90;;;;;;5067061;28;20029;-51
2023/01/12 13:38:48;;;;;;;12.52;6.18;;;27.00;91.90;;;;;;5084852;28;20078;-50
2023/01/12 13:44:35;;;;;;;12.50;6.57;;;27.00;91.90;;;;;;5065522;28;20216;-57
2023/01/12 13:47:21;;;;;;;8.65;6.10;;;27.00;91.90;;;;;;5084718;28;20047;-51
2023/01/12 13:49:55;;;;;;;10.20;6.85;;;27.00;91.90;;;;;;5066438;28;20040;-51
2023/01/12 13:52:29;;;;;;;11.50;6.93;;;27.10;91.90;;;;;;5084129;28;20035;-52
2023/01/12 13:54:56;;;;;;;16.95;6.88;;;27.10;91.90;;;;;;5084317;28;20063;-55
2023/01/12 13:57:30;;;;;;;10.98;6.45;;;27.10;91.90;;;;;;5082193;28;20260;-57